Tinsdal — V2AJ2 — position and weather

sailwx.info

Track history (hours):
 
Tides and Currents Weather Stations Pressure Air Temp Water Temp Dewpoint Dewpoint Depression Visibility Wind Speed Wind Dir Waves Ship Positions

Tinsdal

Last reported at 2015-Apr-25 07:31 UTC. Time now 2015-Apr-27 20:45 UTC.
Position N 43°25' W 002°43'.

Length 90 m; draft 5.3 m.

Type: Cargo ship. MMSI: 305573000.

Date/timePositionNaut miles runAvg speedWind from/ knotsBaromVisibWave heightAir tempDewpointWater temp
2015-Apr-25 07:31N 43°25' W 002°43'0 0.0
2015-Apr-25 04:13N 43°25' W 002°43'0 0.0
2015-Apr-25 03:25N 43°25' W 002°43'0 0.0
2015-Apr-24 16:19N 43°25' W 002°43'  
2015-Apr-21 08:13N 49°57' W 003°04'6 8.0
2015-Apr-21 07:30N 49°59' W 002°56'8 8.7
2015-Apr-21 06:33N 50°01' W 002°43'1010.1
2015-Apr-21 05:33N 50°04' W 002°28'1312.1
2015-Apr-21 04:31N 50°08' W 002°09'1313.6
2015-Apr-21 03:32N 50°11' W 001°49'4212.3
2015-Apr-21 00:09N 50°23' W 000°47'47 8.4
2015-Apr-20 18:33N 50°36' E 000°24'1211.8
2015-Apr-20 17:33N 50°41' E 000°41'1211.4
2015-Apr-20 16:33N 50°48' E 000°56'21 9.4
2015-Apr-20 14:17N 51°01' E 001°22'5 7.0
2015-Apr-20 13:33N 51°05' E 001°28'7 6.9
2015-Apr-20 12:33N 51°09' E 001°37'8 8.3
2015-Apr-20 11:34N 51°15' E 001°46'1110.7
2015-Apr-20 10:33N 51°25' E 001°53'1212.4
2015-Apr-20 09:34N 51°34' E 002°06'1212.3
2015-Apr-20 08:33N 51°43' E 002°19'1211.7
2015-Apr-20 07:33N 51°52' E 002°32'1110.6
2015-Apr-20 06:33N 51°60' E 002°43'10 9.4
2015-Apr-20 05:31N 52°07' E 002°53'8 8.6
2015-Apr-20 04:33N 52°14' E 003°02'8 8.0
2015-Apr-20 03:33N 52°20' E 003°10'9 7.4
2015-Apr-20 02:19N 52°28' E 003°18'6 7.9
2015-Apr-20 01:30N 52°33' E 003°24'10 9.0
2015-Apr-20 00:26N 52°41' E 003°34'910.1
2015-Apr-19 23:32N 52°48' E 003°44'3410.3
2015-Apr-19 20:15N 53°11' E 004°24'17 8.6
2015-Apr-19 18:19N 53°27' E 004°34'8 7.7
2015-Apr-19 17:15N 53°31' E 004°46'6 8.3
2015-Apr-19 16:33N 53°33' E 004°55'9 9.4
2015-Apr-19 15:33N 53°37' E 005°10'1110.5
2015-Apr-19 14:33N 53°40' E 005°27'1010.4
2015-Apr-19 13:33N 53°43' E 005°43'60 8.2
2015-Apr-19 06:19N 53°59' E 007°21'7 9.0
2015-Apr-19 05:33N 54°01' E 007°32'9 9.5
2015-Apr-19 04:33N 54°02' E 007°48'1110.2
2015-Apr-19 03:29N 54°01' E 008°07'1111.6
2015-Apr-19 02:33N 53°59' E 008°25'1211.5
2015-Apr-19 01:33N 53°54' E 008°42'8 8.4
2015-Apr-19 00:33N 53°51' E 008°55'7 7.4
2015-Apr-18 23:33N 53°53' E 009°08'2 2.1
2015-Apr-18 22:33N 53°54' E 009°10'1 0.7
2015-Apr-18 21:33N 53°55' E 009°11'0 0.0
2015-Apr-18 20:33N 53°55' E 009°11'0 0.2
2015-Apr-18 19:33N 53°55' E 009°11'0 0.0
2015-Apr-18 18:33N 53°55' E 009°11'0 0.0
2015-Apr-18 17:33N 53°55' E 009°11'0 0.0
2015-Apr-18 16:33N 53°55' E 009°11'5 5.2
2015-Apr-18 15:33N 53°59' E 009°17'15 7.5
2015-Apr-18 13:32N 54°11' E 009°31'8 6.7
2015-Apr-18 12:20N 54°18' E 009°40'6 7.6
2015-Apr-18 11:33N 54°22' E 009°48'6 6.1
2015-Apr-18 10:34N 54°21' E 009°58'6 6.3
2015-Apr-18 09:33N 54°22' E 010°08'3 3.2
2015-Apr-18 08:33N 54°24' E 010°12'10 9.6
2015-Apr-18 07:33N 54°31' E 010°23'1410.1
2015-Apr-18 06:13N 54°38' E 010°44'89 7.0
2015-Apr-17 17:31N 55°58' E 011°50'4 3.8
2015-Apr-17 16:33N 55°57' E 011°56'  
Track history (hours):
 
Tides and Currents Weather Stations Pressure Air Temp Water Temp Dewpoint Dewpoint Depression Visibility Wind Speed Wind Dir Waves Ship Positions

Tinsdal

Last reported at 2015-Apr-25 07:31 UTC. Time now 2015-Apr-27 20:45 UTC.
Position N 43°25' W 002°43'.

Length 90 m; draft 5.3 m.

Type: Cargo ship. MMSI: 305573000.

Date/timePositionNaut miles runAvg speedWind from/ knotsBaromVisibWave heightAir tempDewpointWater temp
2015-Apr-25 07:31N 43°25' W 002°43'0 0.0
2015-Apr-25 04:13N 43°25' W 002°43'0 0.0
2015-Apr-25 03:25N 43°25' W 002°43'0 0.0
2015-Apr-24 16:19N 43°25' W 002°43'  
2015-Apr-21 08:13N 49°57' W 003°04'6 8.0
2015-Apr-21 07:30N 49°59' W 002°56'8 8.7
2015-Apr-21 06:33N 50°01' W 002°43'1010.1
2015-Apr-21 05:33N 50°04' W 002°28'1312.1
2015-Apr-21 04:31N 50°08' W 002°09'1313.6
2015-Apr-21 03:32N 50°11' W 001°49'4212.3
2015-Apr-21 00:09N 50°23' W 000°47'47 8.4
2015-Apr-20 18:33N 50°36' E 000°24'1211.8
2015-Apr-20 17:33N 50°41' E 000°41'1211.4
2015-Apr-20 16:33N 50°48' E 000°56'21 9.4
2015-Apr-20 14:17N 51°01' E 001°22'5 7.0
2015-Apr-20 13:33N 51°05' E 001°28'7 6.9
2015-Apr-20 12:33N 51°09' E 001°37'8 8.3
2015-Apr-20 11:34N 51°15' E 001°46'1110.7
2015-Apr-20 10:33N 51°25' E 001°53'1212.4
2015-Apr-20 09:34N 51°34' E 002°06'1212.3
2015-Apr-20 08:33N 51°43' E 002°19'1211.7
2015-Apr-20 07:33N 51°52' E 002°32'1110.6
2015-Apr-20 06:33N 51°60' E 002°43'10 9.4
2015-Apr-20 05:31N 52°07' E 002°53'8 8.6
2015-Apr-20 04:33N 52°14' E 003°02'8 8.0
2015-Apr-20 03:33N 52°20' E 003°10'9 7.4
2015-Apr-20 02:19N 52°28' E 003°18'6 7.9
2015-Apr-20 01:30N 52°33' E 003°24'10 9.0
2015-Apr-20 00:26N 52°41' E 003°34'910.1
2015-Apr-19 23:32N 52°48' E 003°44'3410.3
2015-Apr-19 20:15N 53°11' E 004°24'17 8.6
2015-Apr-19 18:19N 53°27' E 004°34'8 7.7
2015-Apr-19 17:15N 53°31' E 004°46'6 8.3
2015-Apr-19 16:33N 53°33' E 004°55'9 9.4
2015-Apr-19 15:33N 53°37' E 005°10'1110.5
2015-Apr-19 14:33N 53°40' E 005°27'1010.4
2015-Apr-19 13:33N 53°43' E 005°43'60 8.2
2015-Apr-19 06:19N 53°59' E 007°21'7 9.0
2015-Apr-19 05:33N 54°01' E 007°32'9 9.5
2015-Apr-19 04:33N 54°02' E 007°48'1110.2
2015-Apr-19 03:29N 54°01' E 008°07'1111.6
2015-Apr-19 02:33N 53°59' E 008°25'1211.5
2015-Apr-19 01:33N 53°54' E 008°42'8 8.4
2015-Apr-19 00:33N 53°51' E 008°55'7 7.4
2015-Apr-18 23:33N 53°53' E 009°08'2 2.1
2015-Apr-18 22:33N 53°54' E 009°10'1 0.7
2015-Apr-18 21:33N 53°55' E 009°11'0 0.0
2015-Apr-18 20:33N 53°55' E 009°11'0 0.2
2015-Apr-18 19:33N 53°55' E 009°11'0 0.0
2015-Apr-18 18:33N 53°55' E 009°11'0 0.0
2015-Apr-18 17:33N 53°55' E 009°11'0 0.0
2015-Apr-18 16:33N 53°55' E 009°11'5 5.2
2015-Apr-18 15:33N 53°59' E 009°17'15 7.5
2015-Apr-18 13:32N 54°11' E 009°31'8 6.7
2015-Apr-18 12:20N 54°18' E 009°40'6 7.6
2015-Apr-18 11:33N 54°22' E 009°48'6 6.1
2015-Apr-18 10:34N 54°21' E 009°58'6 6.3
2015-Apr-18 09:33N 54°22' E 010°08'3 3.2
2015-Apr-18 08:33N 54°24' E 010°12'10 9.6
2015-Apr-18 07:33N 54°31' E 010°23'1410.1
2015-Apr-18 06:13N 54°38' E 010°44'89 7.0
2015-Apr-17 17:31N 55°58' E 011°50'4 3.8
2015-Apr-17 16:33N 55°57' E 011°56'  

Dump ship's entire track history